Bernard A — TCWN3 — position and weather

sailwx.info

Track history (hours):
 
Tides and Currents Weather Stations Pressure Air Temp Water Temp Dewpoint Dewpoint Depression Visibility Wind Speed Wind Dir Waves Ship Positions

Bernard A

Last reported at 2016-Jul-17 20:19 UTC. Time now 2016-Jul-25 14:01 UTC.
Position N 41°26' E 029°04'.

Length 184 m; draft 7.8 m.

Type: Cargo ship. MMSI: 271040008.

Date/timePositionNaut miles runAvg speedWind from/ knotsBaromVisibWave heightAir tempDewpointWater temp
2016-Jul-17 20:19N 41°26' E 029°04'161 6.2
2016-Jul-16 18:11N 44°06' E 028°40'25712.8
2016-Jul-15 22:06N 43°12' E 034°27'916.6
2016-Jul-15 21:33N 43°10' E 034°39'1616.3
2016-Jul-15 20:33N 43°07' E 035°01'3216.1
2016-Jul-15 18:33N 43°02' E 035°44'1615.9
2016-Jul-15 17:33N 42°59' E 036°06'1815.9
2016-Jul-15 16:27N 42°55' E 036°29'1415.9
2016-Jul-15 15:33N 42°52' E 036°48'  
Track history (hours):
 
Tides and Currents Weather Stations Pressure Air Temp Water Temp Dewpoint Dewpoint Depression Visibility Wind Speed Wind Dir Waves Ship Positions

Bernard A

Last reported at 2016-Jul-17 20:19 UTC. Time now 2016-Jul-25 14:01 UTC.
Position N 41°26' E 029°04'.

Length 184 m; draft 7.8 m.

Type: Cargo ship. MMSI: 271040008.

Date/timePositionNaut miles runAvg speedWind from/ knotsBaromVisibWave heightAir tempDewpointWater temp
2016-Jul-17 20:19N 41°26' E 029°04'161 6.2
2016-Jul-16 18:11N 44°06' E 028°40'25712.8
2016-Jul-15 22:06N 43°12' E 034°27'916.6
2016-Jul-15 21:33N 43°10' E 034°39'1616.3
2016-Jul-15 20:33N 43°07' E 035°01'3216.1
2016-Jul-15 18:33N 43°02' E 035°44'1615.9
2016-Jul-15 17:33N 42°59' E 036°06'1815.9
2016-Jul-15 16:27N 42°55' E 036°29'1415.9
2016-Jul-15 15:33N 42°52' E 036°48'  

Dump ship's entire track history